Amsterdam, Netherlands

5:14 PM CET on January 28, 2015 (GMT +0100)
Schiphol | Change Station
CLOSE
Current Station
Personal Weather Station
Location: Badhoevedorp, NOORD HOLLAND
Elevation: -10 ft
Nearby Weather Stations
Active Advisory: Wind nederlands:

Elev -10 ft 52.33 °N, 4.78 °E | Updated 6 minutes ago

Rain
Rain
39.5 °F
Feels Like 37 °F
N
4.0
Wind Variable Wind from West
Gusts 9.0 mph

Today
High -- | Low -- °F
--% Chance of Precip.
Yesterday
High -- | Low -- °F
Precip. -- in
8:28 AM 5:19 PM
Waxing Gibbous, 66% visible
Pressure 29.36 in
Visibility 6.2 miles
Clouds Few 2200 ft
Windchill 37 °F
Dew Point 36 °F
Humidity 88%
Rainfall 0.22 in
Snow Depth Not available.
UV 0.0 out of 12
Pollen Not available.
Air Quality Not available.
Flu Activity Not available.
METAR EHAM 281555Z 27015KT 9999 FEW022 04/01 Q0994 NOSIG

More Conditions Fewer Conditions

Pressure 29.36 in
Visibility 6.2 miles
Clouds Few 2200 ft
Windchill 37 °F
Dew Point 36 °F
Humidity 88%
Rainfall 0.22 in
Snow Depth Not available.
UV 0.0 out of 12
Pollen Not available.
Air Quality Not available.
Flu Activity Not available.
METAR EHAM 281555Z 27015KT 9999 FEW022 04/01 Q0994 NOSIG

More Conditions Fewer Conditions

10-Day Weather Forecast

Almanac

Astronomy

Jan. 28, 2015 Rise Set
Actual Time
Civil Twilight
Nautical Twilight
Astronomical Twilight
Moon
Length of Visible Light
Length of Day
Tomorrow will be .
, % of the Moon is Illuminated

Today's Extremes

Country Highs Country Lows

Community

WunderPhotos

Upload Photos

1,791,189 photos uploaded!

WunderBlogs® & News

Nearby

Air Quality

  Air Quality AQ Index Pollutant
Not available.

Snow Depth

Station Depth Elevation

Earthquake Activity

City Distance Mag. Time & Date
Minimum magnitude displayed is 2.5.

Coastal Water Temperatures

Place Temperature

Nearby Weather Stations